Sonic Adventure (DX): Overall Rankings

Records: Times | Rings | Scores | Races | Bosses | Freestyle
Leaders: Times | Rings | Scores | Races | Bosses | Freestyle | Overall
Rank Order Asc Player Percent Points Date
1 Sonicspeedruner 98.4% 252 04-25-15
2 Gamepro011 97.6% 387 04-25-15
3 DarkPolarNight 96.3% 590 04-25-15
4 Jawzun 93.9% 983 04-25-15
5 Dashjump 91.8% 1328 04-25-15
6 DarkspinesSonic 90.8% 1484 04-25-15
7 Avento128bits 90.3% 1564 04-25-15
8 ike6252 90.2% 1592 04-25-15
9 F-Man 86.1% 2259 04-25-15
10 HyperSonic7701 85.1% 2416 04-25-15
11 Coolfansonic 84.0% 2599 04-25-15
12 yoshifan 83.5% 2673 04-25-15
13 frankoredstrato 83.1% 2739 04-25-15
14 TheRealShadnic 82.1% 2902 04-25-15
15 francisco 82.1% 2903 04-25-15
16 Marth 81.8% 2956 04-25-15
17 InferSaime 80.4% 3176 04-25-15
18 PfoSonic 80.1% 3234 04-25-15
19 Paragod 79.5% 3318 04-25-15
20 THC98 78.4% 3506 04-25-15
21 Stefan 76.3% 3852 04-25-15
22 RPGnutter 74.0% 4222 04-25-15
23 bertin 73.9% 4231 04-25-15
24 sonicam 71.7% 4599 04-25-15
25 Combo 65.6% 5581 04-25-15
26 SkyLights 64.5% 5767 04-25-15
27 xXMegaManXx 63.6% 5910 04-25-15
28 Diamond 62.8% 6040 04-25-15
29 GerbilSoft 60.3% 6442 04-25-15
30 OmegaDJ 60.3% 6446 04-25-15
31 Auriman1 60.2% 6459 04-25-15
32 magnum12 59.3% 6610 04-25-15
33 Dawid8404 59.1% 6636 04-25-15
34 drminus 59.1% 6642 04-25-15
35 Thorn 57.2% 6945 04-25-15
36 P1 Pause 57.0% 6987 04-25-15
37 mike89 55.7% 7188 04-25-15
38 chainchumper 54.1% 7461 04-25-15
39 Groudon199 53.9% 7491 04-25-15
40 Dave Cramer 53.9% 7494 04-25-15
41 Parax 53.3% 7581 04-25-15
42 Shadow Jacky 52.8% 7672 04-25-15
43 Psymar 47.6% 8517 04-25-15
44 Chao_Fan 45.8% 8808 04-25-15
45 Arch 45.5% 8847 04-25-15
46 mauserman 45.5% 8862 04-25-15
47 Quartz 44.7% 8991 04-25-15
48 teamblackarms 43.6% 9156 04-25-15
49 Psyknux 43.5% 9178 04-25-15
50 James_Bertolli 42.9% 9280 04-25-15
51 NintenDan 42.3% 9369 04-25-15
52 Fr3nZy 41.8% 9457 04-25-15
53 Webber3000 41.8% 9460 04-25-15
54 Turbos 41.6% 9484 04-25-15
55 Ring Rush 41.6% 9490 04-25-15
56 Cream147 41.3% 9532 04-25-15
57 videogamemaster777 41.2% 9546 04-25-15
58 Siavash Tazari 41.0% 9581 04-25-15
59 buddychaos0415 40.6% 9657 04-25-15
60 SadisticMystic 39.9% 9761 04-25-15
61 eggFL 39.1% 9902 04-25-15
62 Redd 38.6% 9974 04-25-15
63 SB737 37.5% 10162 04-25-15
64 supersonicfan 36.3% 10355 04-25-15
65 FuzZerd 35.3% 10519 04-25-15
66 elecmouse101 34.5% 10642 04-25-15
67 supersonic465 34.4% 10664 04-25-15
68 Austinf 33.6% 10791 04-25-15
69 metanightmare22 32.9% 10908 04-25-15
70 Aitamen 32.9% 10911 04-25-15
71 dabestgamer 32.7% 10933 04-25-15
72 MiStEr_ShAoLiN 32.6% 10953 04-25-15
73 Cyan Ryan 32.6% 10959 04-25-15
74 itsPersonnal 31.8% 11080 04-25-15
75 Cybrax 30.9% 11228 04-25-15
76 Andrea Ritsu 30.6% 11283 04-25-15
77 danieldude 30.5% 11297 04-25-15
78 SilvertheAlmighty 30.4% 11306 04-25-15
79 VMU Player Banned 28.8% 11568 04-25-15
80 Omega Rafael Santos 28.4% 11630 04-25-15
81 Staf 28.1% 11680 04-25-15
82 The T 27.9% 11714 04-25-15
83 EngiNerd 27.6% 11764 04-25-15
84 lordmetalsonic 26.9% 11884 04-25-15
85 Hipertails12 26.7% 11904 04-25-15
86 welldooder64 26.2% 11991 04-25-15
87 GreatStar 26.2% 11992 04-25-15
88 Sondow 26.2% 11996 04-25-15
89 The Great Lord Mick 25.9% 12042 04-25-15
90 Mastakirby 25.9% 12047 04-25-15
91 LinksDarkArrows 25.7% 12072 04-25-15
92 Nimrod 25.5% 12113 04-25-15
93 Skylace 24.8% 12224 04-25-15
94 Rolken 23.3% 12457 04-25-15
95 Xia 21.8% 12708 04-25-15
96 Kogen Player Banned 21.7% 12722 04-25-15
97 Spinballwizard 21.6% 12742 04-25-15
98 Don 21.3% 12786 04-25-15
99 Miles9999 21.3% 12797 04-25-15
100 Cutiefox 21.2% 12802 04-25-15
101 f0rever_zer0 21.1% 12826 04-25-15
101 Game_Complete 21.1% 12826 04-25-15
103 andres430 20.4% 12937 04-25-15
104 Cruizer 20.3% 12950 04-25-15
105 iSonicKid2K 20.1% 12984 04-25-15
106 SADXTryHard 19.8% 13040 04-25-15
107 GarnetPrincess 19.4% 13103 04-25-15
108 knuckles_sonic8 18.8% 13198 04-25-15
109 Team_Yoshi 18.3% 13282 04-25-15
110 KinkyCadence 18.0% 13321 04-25-15
111 The Knuckles Chao 17.8% 13359 04-25-15
112 Termon 17.7% 13376 04-25-15
113 FoxBoy 17.6% 13386 04-25-15
114 LittleBigness 17.3% 13435 04-25-15
115 SonicWinDX 17.1% 13479 04-25-15
116 Sonic Singularity 15.5% 13732 04-25-15
117 Pokemonmaster888 15.5% 13738 04-25-15
118 BigAL49 14.5% 13903 04-25-15
119 SilverSonic 14.3% 13932 04-25-15
120 MPit08 14.2% 13945 04-25-15
121 WeegeeZV 14.1% 13965 04-25-15
122 Mo Player Banned 14.0% 13973 04-25-15
123 Cod4Scopes 13.5% 14064 04-25-15
124 HyperSonic64 13.3% 14099 04-25-15
125 booo95 13.2% 14113 04-25-15
126 Chawkk 13.1% 14130 04-25-15
127 paulie9990 12.9% 14160 04-25-15
127 SuperSonic101 12.9% 14160 04-25-15
129 Hunters13 12.9% 14163 04-25-15
130 Maxinfamily 12.6% 14197 04-25-15
131 PsyBorg 12.5% 14228 04-25-15
132 Flying Fox 12.5% 14229 04-25-15
133 Kanimayo_Jp 12.4% 14234 04-25-15
134 BrokenArthritis 12.3% 14248 04-25-15
135 LilZero 12.1% 14282 04-25-15
136 a_moustache 11.8% 14335 04-25-15
137 Therio 11.8% 14343 04-25-15
138 Drakodan 11.7% 14356 04-25-15
139 sonicspeed 11.6% 14364 04-25-15
140 douglas 11.5% 14388 04-25-15
141 Matt_TY 11.2% 14440 04-25-15
142 joecoolgames 10.5% 14539 04-25-15
143 Cooljay 10.5% 14542 04-25-15
144 SeaWolf 10.4% 14558 04-25-15
145 TFEC Headshot 9.9% 14642 04-25-15
146 welshmoose05 9.8% 14659 04-25-15
147 crazy1993 9.5% 14701 04-25-15
148 Mcshuggets 9.5% 14704 04-25-15
149 videogamer1014 9.2% 14752 04-25-15
150 imazor017 9.2% 14763 04-25-15
151 nuckrieg 9.0% 14785 04-25-15
152 niscool 9.0% 14792 04-25-15
153 SonicAD 9.0% 14793 04-25-15
154 SirTobbii 8.9% 14810 04-25-15
155 Shadowthegreat 8.7% 14837 04-25-15
155 superjupi 8.7% 14837 04-25-15
157 SaviourDC 8.4% 14884 04-25-15
158 iarebored 8.4% 14889 04-25-15
159 sonamyfan666 8.3% 14901 04-25-15
160 Werey 8.3% 14912 04-25-15
161 SonicKnuckles 8.2% 14925 04-25-15
162 adf 7.9% 14972 04-25-15
163 ArcticDragon 7.8% 14980 04-25-15
164 Megaman EXE565 7.7% 15000 04-25-15
165 Platformer 7.4% 15054 04-25-15
166 FocusSight64 7.3% 15069 04-25-15
167 wheatrich 7.2% 15084 04-25-15
168 timpkmn89 7.2% 15087 04-25-15
169 Swift Hobo 7.2% 15091 04-25-15
170 Rickyman48 7.0% 15110 04-25-15
171 KitsuneYamaro 6.7% 15158 04-25-15
172 Triseena 6.6% 15178 04-25-15
173 CyberShadow 6.5% 15202 04-25-15
174 Mariobutch 6.4% 15219 04-25-15
174 slade23 6.4% 15219 04-25-15
176 dShadow 6.4% 15220 04-25-15
176 Starlight Sable 6.4% 15220 04-25-15
178 IsisDazs 6.2% 15249 04-25-15
179 BlankTH 6.0% 15276 04-25-15
180 Monkeh 5.8% 15318 04-25-15
181 Richied 5.7% 15326 04-25-15
182 DaDude 5.6% 15346 04-25-15
183 sonicd5 5.5% 15363 04-25-15
184 Zip 5.4% 15370 04-25-15
185 Kirbymon30 5.1% 15422 04-25-15
185 tal39h 5.1% 15422 04-25-15
187 soniccoloursunleashed 4.8% 15472 04-25-15
188 Drflash55 4.8% 15475 04-25-15
189 Yish 4.6% 15499 04-25-15
190 neaolas 4.6% 15503 04-25-15
191 Bass 4.6% 15504 04-25-15
192 UninspiredUsername 4.5% 15518 04-25-15
193 superiorsonic 4.5% 15520 04-25-15
194 Sonicsuperstar1 4.5% 15521 04-25-15
195 zapp 4.5% 15528 04-25-15
196 gamefreak1292 4.4% 15541 04-25-15
197 SonicU260 4.1% 15591 04-25-15
198 Chaos_Overlord 4.1% 15593 04-25-15
199 ethmar 4.0% 15597 04-25-15
200 TakaRikka 4.0% 15609 04-25-15
201 Valfore 3.9% 15616 04-25-15
202 ShinigamiMachine 3.8% 15641 04-25-15
203 Regano1000 3.7% 15654 04-25-15
204 MK 3.6% 15670 04-25-15
205 Ace747 3.5% 15683 04-25-15
206 Illidan 3.2% 15730 04-25-15
207 Venick409 3.1% 15744 04-25-15
208 Brian_pso 3.1% 15753 04-25-15
209 Sithwarrior26 3.0% 15762 04-25-15
210 ingx24 2.9% 15781 04-25-15
210 TheChaosEmeraIds 2.9% 15781 04-25-15
212 SkyBon 2.8% 15793 04-25-15
213 Nickson98 2.8% 15794 04-25-15
214 Fozer 2.7% 15807 04-25-15
215 FSSRandomvids 2.7% 15808 04-25-15
216 sonic29887 2.7% 15812 04-25-15
217 Colomb_30 2.7% 15816 04-25-15
218 TheUltraBlur 2.6% 15831 04-25-15
219 1stKirbyever 2.5% 15843 04-25-15
220 Th4tN1nj4Turtl3 2.3% 15875 04-25-15
221 Cort_pso 2.3% 15877 04-25-15
222 Doom-9 2.3% 15884 04-25-15
223 ieatatsonic 2.2% 15891 04-25-15
224 Mariosonic15 2.2% 15894 04-25-15
225 SuperSonic71087 2.2% 15903 04-25-15
226 MStitomix 2.1% 15909 04-25-15
227 HermitHelmet 2.1% 15916 04-25-15
228 Artie 2.0% 15928 04-25-15
229 Got4n 2.0% 15929 04-25-15
230 Jose_15 1.9% 15939 04-25-15
230 Questionguy555 1.9% 15939 04-25-15
232 djmat 1.9% 15953 04-25-15
233 sonicandamy 1.7% 15972 04-25-15
233 SuperSonicfan9595 1.7% 15972 04-25-15
235 LancexExWx 1.7% 15978 04-25-15
236 son1cgu1tar 1.7% 15982 04-25-15
237 Heroes_Hater 1.7% 15984 04-25-15
238 Paixii 1.6% 15987 04-25-15
239 BallzeH 1.5% 16004 04-25-15
240 Mankster101 1.5% 16009 04-25-15
241 BecauseWarAnvil 1.5% 16013 04-25-15
242 Jamixesa 1.5% 16014 04-25-15
243 Crydio 1.4% 16019 04-25-15
244 Shanekilz 1.4% 16023 04-25-15
245 SpiritDragon1995 1.4% 16024 04-25-15
246 ReuelBrony 1.4% 16031 04-25-15
247 stanski 1.3% 16037 04-25-15
248 MarewBFN 1.3% 16041 04-25-15
249 Sonique Hedgehog 1.3% 16046 04-25-15
250 Blue Infamy 1.2% 16054 04-25-15
251 p0ker 1.2% 16055 04-25-15
252 ErrortheCucco 1.2% 16064 04-25-15
253 Arthas 1.1% 16067 04-25-15
253 Rikum22 1.1% 16067 04-25-15
255 sonic1001 1.1% 16075 04-25-15
256 WingedInsignia 1.1% 16079 04-25-15
257 syco1098 1.1% 16082 04-25-15
258 AJSIV 1.0% 16085 04-25-15
259 Sonic the Hedgehod16 1.0% 16087 04-25-15
260 sonicfan9 1.0% 16090 04-25-15
261 Calfd 1.0% 16091 04-25-15
262 BlackArmsShadow 0.9% 16102 04-25-15
263 HHNNBBHHN 0.9% 16103 04-25-15
264 themachoman202 0.9% 16107 04-25-15
265 Ben1502 0.9% 16113 04-25-15
266 Greham Adelphis 0.9% 16114 04-25-15
266 MastaToken 0.9% 16114 04-25-15
268 shadowblast63 Player Banned 0.9% 16115 04-25-15
269 Fivavoa 0.8% 16116 04-25-15
270 Mr. Jones 0.8% 16117 04-25-15
271 arcfx1985 0.8% 16119 04-25-15
271 darkstarblaze 0.8% 16119 04-25-15
271 ptorflaxendrosis 0.8% 16119 04-25-15
274 Gvozdevik 0.8% 16123 04-25-15
274 Knuckles 0.8% 16123 04-25-15
276 FlandreScarlet9999vr 0.8% 16124 04-25-15
277 Zeldocto 0.8% 16129 04-25-15
278 KaM Mark MaK 0.7% 16133 04-25-15
279 BeeAwwb 0.7% 16137 04-25-15
280 ShadouZaHejjihoggu 0.7% 16140 04-25-15
281 Sonic62 0.7% 16146 04-25-15
282 darkersupershadic 0.6% 16149 04-25-15
283 Sogeking 0.6% 16150 04-25-15
284 dragondragon18 0.6% 16153 04-25-15
284 Shadygamerfreak 0.6% 16153 04-25-15
286 Sarger001 0.6% 16154 04-25-15
286 SonicK100 0.6% 16154 04-25-15
288 Grady219 0.6% 16155 04-25-15
289 Jawaah 0.6% 16159 04-25-15
290 Antek 0.6% 16163 04-25-15
291 SilverK 0.6% 16164 04-25-15
292 Klaus 0.5% 16165 04-25-15
293 SpinDashMaster 0.5% 16169 04-25-15
294 BioShadow 0.5% 16170 04-25-15
295 Videogamer123 0.5% 16175 04-25-15
296 Egor305 0.4% 16189 04-25-15
296 oTaiIilLsS 0.4% 16189 04-25-15
298 Mad Andy 0.4% 16190 04-25-15
299 isaihtb11 0.4% 16191 04-25-15
300 OhNoes! 0.4% 16192 04-25-15
301 zaktu40 0.4% 16193 04-25-15
302 S-MS32X-S 0.4% 16195 04-25-15
303 gaara1234 0.4% 16196 04-25-15
304 gamed00d 0.3% 16197 04-25-15
305 Mister_Slick 0.3% 16207 04-25-15
306 Sonic06Fan 0.3% 16209 04-25-15
307 Rush Hero 0.3% 16210 04-25-15
308 SonicMega167 0.3% 16213 04-25-15
309 Iwannabelink 0.2% 16214 04-25-15
310 sonknuck23 0.2% 16219 04-25-15
311 DanielTheFalcon 0.2% 16224 04-25-15
311 gamer1245 0.2% 16224 04-25-15
313 Burningskull123 0.1% 16232 04-25-15
314 Sonicontherun 0.1% 16242 04-25-15
315 Lil_Dude 0.0% 16246 04-25-15
316 antiwwe 0.0% 16248 04-25-15
317 Cbwade15 0.0% 16252 04-25-15
317 Genuine Hedgehog 0.0% 16252 04-25-15
319 Tyrouble 0.0% 16255 04-25-15
320 MegabombBlade 0.0% 16262 04-25-15
320 neji_hyuuga 0.0% 16262 04-25-15
320 Over 0.0% 16262 04-25-15
320 sdj6707 Player Banned 0.0% 16262 04-25-15
320 Tran Sonic Fan Player Banned 0.0% 16262 04-25-15

This page is using the New Data Table System. [FUTURE]

Game ID: 3 | Category ID: 10
Hits: 63,116 | Hits This Month: 223 | DB Calls: 21 | Mem Usage: 5.45 MB | Time: 0.22s | Printable

The Sonic Center v3.9
Copyright 2003-2011 by The Sonic Center Team.